Time;durP1;ratioP1;P1;durP2;ratioP2;P2;SDS_P1;SDS_P2;PMS_P1;PMS_P2;Temp;Humidity;BMP_temperature;BMP_pressure;BME280_temperature;BME280_humidity;BME280_pressure;Samples;Min_cycle;Max_cycle;Signal;HPM_P1;HPM_P2
2021/10/12 00:00:44;;;;;;;38.30;17.97;;;10.40;93.60;;;;;;5069919;28;20200;-76
2021/10/12 00:03:10;;;;;;;32.53;16.90;;;10.40;93.70;;;;;;5069857;28;20183;-74
2021/10/12 00:05:35;;;;;;;40.83;17.40;;;10.40;93.70;;;;;;5069527;28;20190;-75
2021/10/12 00:08:02;;;;;;;36.23;17.80;;;10.50;93.60;;;;;;5069319;28;20549;-74
2021/10/12 00:10:27;;;;;;;31.27;17.03;;;10.50;93.50;;;;;;5069569;28;20199;-73
2021/10/12 00:12:53;;;;;;;41.50;19.23;;;10.50;93.30;;;;;;5069712;28;20513;-75
2021/10/12 00:15:19;;;;;;;45.27;18.03;;;10.50;93.30;;;;;;5069219;28;20184;-74
2021/10/12 00:17:45;;;;;;;35.03;16.97;;;10.40;93.40;;;;;;5068352;28;20211;-74
2021/10/12 00:20:11;;;;;;;41.63;19.10;;;10.40;93.50;;;;;;5070381;28;20461;-75
2021/10/12 00:22:37;;;;;;;40.60;19.27;;;10.40;93.50;;;;;;5072971;28;20545;-75
2021/10/12 00:25:04;;;;;;;32.80;18.57;;;10.40;93.50;;;;;;5069059;28;20422;-75
2021/10/12 00:27:30;;;;;;;33.20;17.13;;;10.30;93.70;;;;;;5057532;28;20792;-73
2021/10/12 00:29:56;;;;;;;35.73;17.57;;;10.30;94.00;;;;;;5068348;28;20442;-74
2021/10/12 00:32:21;;;;;;;34.40;17.20;;;10.30;94.10;;;;;;5059022;28;20474;-74
2021/10/12 00:34:47;;;;;;;38.10;18.70;;;10.40;93.90;;;;;;5064682;28;20198;-74
2021/10/12 00:37:13;;;;;;;32.00;16.40;;;10.40;93.80;;;;;;5069613;28;20654;-74
2021/10/12 00:39:40;;;;;;;38.60;17.47;;;10.40;93.80;;;;;;5068598;28;20192;-74
2021/10/12 00:42:06;;;;;;;42.83;19.80;;;10.30;93.90;;;;;;5067831;28;20199;-74
2021/10/12 00:44:33;;;;;;;34.53;17.37;;;10.10;93.90;;;;;;5067845;28;20418;-75
2021/10/12 00:46:59;;;;;;;36.63;17.43;;;10.10;94.30;;;;;;5069024;28;20426;-74
2021/10/12 00:49:25;;;;;;;37.03;17.20;;;10.10;94.60;;;;;;5069386;28;20830;-75
2021/10/12 00:51:51;;;;;;;37.90;17.80;;;10.20;94.40;;;;;;5069602;28;20295;-74
2021/10/12 00:54:17;;;;;;;37.10;16.20;;;10.20;94.30;;;;;;5063397;28;20430;-73
2021/10/12 00:56:43;;;;;;;31.00;16.23;;;10.30;94.10;;;;;;5069141;28;21106;-74
2021/10/12 00:59:09;;;;;;;36.47;16.63;;;10.30;94.00;;;;;;5069236;28;20515;-74
2021/10/12 01:01:38;;;;;;;37.10;16.40;;;10.30;93.80;;;;;;5069570;28;20500;-74
2021/10/12 01:04:05;;;;;;;42.77;18.90;;;10.30;93.90;;;;;;5067209;28;20430;-75
2021/10/12 01:06:31;;;;;;;32.10;16.60;;;10.20;93.90;;;;;;5067857;28;20426;-74
2021/10/12 01:08:57;;;;;;;37.87;17.83;;;10.20;94.10;;;;;;5069493;28;20509;-75
2021/10/12 01:11:23;;;;;;;37.80;16.80;;;10.20;94.10;;;;;;5071379;28;20650;-75
2021/10/12 01:13:48;;;;;;;41.40;16.30;;;10.20;94.00;;;;;;5072445;28;20195;-73
2021/10/12 01:16:15;;;;;;;38.20;16.83;;;10.20;94.00;;;;;;5073034;28;20461;-74
2021/10/12 01:18:55;;;;;;;32.90;16.07;;;10.20;93.90;;;;;;5072714;28;20453;-74
2021/10/12 01:21:21;;;;;;;35.13;16.63;;;10.20;94.00;;;;;;5072930;28;20430;-75
2021/10/12 01:23:47;;;;;;;33.20;15.50;;;10.10;94.00;;;;;;5071083;28;20573;-74
2021/10/12 01:26:12;;;;;;;32.30;16.70;;;10.10;94.10;;;;;;5072983;28;20180;-73
2021/10/12 01:28:38;;;;;;;28.73;14.27;;;10.10;94.20;;;;;;5072710;28;20240;-74
2021/10/12 01:31:04;;;;;;;35.77;15.07;;;10.20;94.20;;;;;;5071308;28;20211;-73
2021/10/12 01:33:30;;;;;;;32.23;14.83;;;10.20;94.10;;;;;;5069217;28;20183;-74
2021/10/12 01:35:55;;;;;;;28.67;15.07;;;10.10;94.10;;;;;;5073017;28;20187;-74
2021/10/12 01:38:21;;;;;;;34.10;15.53;;;10.10;94.00;;;;;;5070680;28;20296;-75
2021/10/12 01:40:47;;;;;;;31.60;15.53;;;10.10;94.00;;;;;;5071177;28;20215;-74
2021/10/12 01:43:12;;;;;;;36.87;17.70;;;10.10;93.90;;;;;;5070903;28;20208;-74
2021/10/12 01:45:38;;;;;;;27.00;13.63;;;10.10;93.90;;;;;;5071113;28;20233;-76
2021/10/12 01:48:04;;;;;;;35.30;15.77;;;10.30;93.50;;;;;;5069045;28;20184;-75
2021/10/12 01:50:30;;;;;;;37.83;16.83;;;10.20;93.20;;;;;;5072563;28;20210;-74
2021/10/12 01:52:56;;;;;;;30.73;15.67;;;10.10;93.40;;;;;;5066689;28;20418;-74
2021/10/12 01:55:23;;;;;;;36.20;16.67;;;10.10;93.60;;;;;;5071996;28;20720;-76
2021/10/12 01:57:50;;;;;;;38.40;17.50;;;10.20;93.60;;;;;;5066576;28;20564;-75
2021/10/12 02:00:16;;;;;;;34.83;16.43;;;10.10;93.70;;;;;;5070558;28;20433;-76
2021/10/12 02:02:42;;;;;;;37.70;18.03;;;10.10;93.90;;;;;;5070900;28;21088;-74
2021/10/12 02:05:08;;;;;;;34.90;16.80;;;10.10;93.80;;;;;;5071613;28;20509;-75
2021/10/12 02:07:33;;;;;;;38.33;19.17;;;10.10;93.90;;;;;;5071604;28;21038;-75
2021/10/12 02:09:59;;;;;;;37.27;16.93;;;10.20;93.90;;;;;;5071901;28;20437;-75
2021/10/12 02:12:25;;;;;;;33.03;16.60;;;10.10;94.00;;;;;;5073604;28;20543;-76
2021/10/12 02:14:51;;;;;;;36.37;16.67;;;10.20;94.00;;;;;;5073940;28;20262;-75
2021/10/12 02:17:16;;;;;;;42.73;17.77;;;10.20;93.90;;;;;;5072314;28;20175;-76
2021/10/12 02:19:42;;;;;;;42.57;19.33;;;10.20;93.80;;;;;;5072044;28;20419;-76
2021/10/12 02:22:08;;;;;;;36.37;18.93;;;10.20;93.80;;;;;;5070303;28;20617;-76
2021/10/12 02:24:33;;;;;;;39.23;17.60;;;10.10;94.00;;;;;;5076741;28;20210;-76
2021/10/12 02:26:59;;;;;;;37.73;17.43;;;10.00;94.20;;;;;;5062145;28;20190;-75
2021/10/12 02:29:25;;;;;;;38.97;16.53;;;10.10;94.20;;;;;;5071849;28;20296;-76
2021/10/12 02:31:50;;;;;;;37.67;15.93;;;10.10;94.10;;;;;;5071445;28;20672;-76
2021/10/12 02:34:16;;;;;;;36.17;17.70;;;10.00;94.20;;;;;;5067443;28;20963;-76
2021/10/12 02:36:42;;;;;;;44.93;18.03;;;10.10;94.30;;;;;;5072021;28;20325;-76
2021/10/12 02:39:07;;;;;;;34.97;16.90;;;10.20;94.10;;;;;;5071717;28;20216;-75
2021/10/12 02:41:33;;;;;;;35.00;16.80;;;10.30;93.70;;;;;;5070697;28;20280;-74
2021/10/12 02:43:59;;;;;;;38.13;17.00;;;10.20;93.70;;;;;;5073335;28;20238;-74
2021/10/12 02:46:25;;;;;;;32.87;15.63;;;10.10;93.80;;;;;;5077694;28;20252;-74
2021/10/12 02:48:50;;;;;;;37.83;16.10;;;10.20;93.90;;;;;;5079057;28;20210;-75
2021/10/12 02:51:16;;;;;;;34.50;16.03;;;10.10;93.60;;;;;;5076343;28;20273;-73
2021/10/12 02:53:42;;;;;;;37.93;17.83;;;10.10;93.70;;;;;;5078917;28;20210;-74
2021/10/12 02:56:08;;;;;;;30.20;15.27;;;10.10;93.70;;;;;;5068623;28;20418;-74
2021/10/12 02:58:34;;;;;;;34.17;16.73;;;10.10;93.80;;;;;;5068687;28;20674;-75
2021/10/12 03:01:00;;;;;;;29.60;15.13;;;10.10;93.80;;;;;;5070770;28;20723;-74
2021/10/12 03:03:25;;;;;;;38.00;16.40;;;10.10;93.90;;;;;;5071469;28;20448;-75
2021/10/12 03:05:51;;;;;;;32.60;16.03;;;10.10;93.80;;;;;;5070799;28;20179;-74
2021/10/12 03:08:17;;;;;;;30.63;14.27;;;10.20;93.70;;;;;;5070848;28;20188;-75
2021/10/12 03:10:42;;;;;;;30.10;15.23;;;10.10;93.60;;;;;;5069490;28;20210;-74
2021/10/12 03:13:11;;;;;;;29.87;16.93;;;10.10;93.40;;;;;;5069568;28;20254;-75
2021/10/12 03:15:37;;;;;;;30.00;14.83;;;10.10;93.20;;;;;;5070631;28;20242;-76
2021/10/12 03:18:02;;;;;;;32.43;14.97;;;10.00;93.40;;;;;;5070561;28;20489;-75
2021/10/12 03:20:28;;;;;;;32.00;15.30;;;10.00;93.50;;;;;;5062473;28;20225;-75
2021/10/12 03:22:54;;;;;;;31.93;14.77;;;10.10;93.30;;;;;;5071746;28;20192;-76
2021/10/12 03:25:20;;;;;;;35.00;15.43;;;10.00;93.30;;;;;;5072808;28;20188;-74
2021/10/12 03:27:45;;;;;;;28.30;14.00;;;10.00;93.40;;;;;;5069416;28;20697;-75
2021/10/12 03:30:11;;;;;;;30.43;14.30;;;10.10;93.30;;;;;;5069857;28;20196;-74
2021/10/12 03:32:37;;;;;;;31.63;13.00;;;10.10;93.30;;;;;;5064308;28;20212;-76
2021/10/12 03:35:03;;;;;;;27.00;12.70;;;10.10;93.30;;;;;;5070080;28;20557;-75
2021/10/12 03:37:29;;;;;;;25.70;13.23;;;10.20;93.10;;;;;;5070115;28;20611;-75
2021/10/12 03:39:55;;;;;;;24.10;12.27;;;10.20;92.70;;;;;;5070210;28;20615;-74
2021/10/12 03:42:20;;;;;;;27.13;13.07;;;10.30;92.50;;;;;;5068752;28;20270;-74
2021/10/12 03:44:46;;;;;;;27.27;12.90;;;10.30;92.30;;;;;;5062091;28;20230;-73
2021/10/12 03:47:12;;;;;;;26.77;13.67;;;10.30;92.30;;;;;;5070217;28;20191;-75
2021/10/12 03:49:37;;;;;;;30.03;13.97;;;10.30;92.30;;;;;;5070359;28;20199;-75
2021/10/12 03:52:03;;;;;;;28.53;15.23;;;10.30;92.50;;;;;;5068623;28;20192;-74
2021/10/12 03:54:29;;;;;;;29.87;14.43;;;10.40;92.30;;;;;;5068347;28;20210;-75
2021/10/12 03:56:55;;;;;;;27.03;13.90;;;10.30;91.80;;;;;;5068908;28;20187;-75
2021/10/12 03:59:20;;;;;;;30.77;13.90;;;10.20;92.20;;;;;;5069687;28;20243;-76
2021/10/12 04:01:46;;;;;;;33.20;15.30;;;10.10;92.50;;;;;;5069648;28;20200;-74
2021/10/12 04:04:12;;;;;;;25.47;12.70;;;10.10;92.70;;;;;;5069726;28;20200;-75
2021/10/12 04:06:37;;;;;;;34.87;15.00;;;10.20;92.60;;;;;;5069869;28;20190;-75
2021/10/12 04:09:03;;;;;;;31.17;13.47;;;10.10;92.70;;;;;;5070384;28;20218;-76
2021/10/12 04:11:29;;;;;;;29.27;14.03;;;10.00;92.90;;;;;;5071788;28;20211;-75
2021/10/12 04:13:54;;;;;;;26.77;13.20;;;10.00;93.00;;;;;;5071802;28;20650;-74
2021/10/12 04:16:20;;;;;;;27.47;13.20;;;10.00;93.10;;;;;;5054037;28;20192;-75
2021/10/12 04:18:46;;;;;;;24.07;13.17;;;9.90;93.20;;;;;;5072514;28;20235;-75
2021/10/12 04:21:12;;;;;;;21.77;11.17;;;10.00;93.10;;;;;;5062733;28;20211;-75
2021/10/12 04:23:38;;;;;;;28.30;13.40;;;10.00;92.90;;;;;;5072940;28;20619;-75
2021/10/12 04:26:11;;;;;;;24.40;12.60;;;10.10;92.70;;;;;;5075976;28;20192;-75
2021/10/12 04:28:37;;;;;;;19.50;9.30;;;10.20;92.30;;;;;;5066304;28;20479;-75
2021/10/12 04:31:03;;;;;;;23.77;10.87;;;10.30;92.00;;;;;;5073462;28;20525;-74
2021/10/12 04:33:29;;;;;;;24.87;11.63;;;10.40;91.60;;;;;;5073853;28;20183;-74
2021/10/12 04:35:54;;;;;;;32.87;12.37;;;10.40;91.60;;;;;;5073979;28;20781;-75
2021/10/12 04:38:20;;;;;;;31.10;12.10;;;10.40;92.20;;;;;;5073983;28;20684;-75
2021/10/12 04:40:46;;;;;;;29.40;14.80;;;10.40;92.10;;;;;;5073792;28;20799;-75
2021/10/12 04:43:11;;;;;;;24.90;12.33;;;10.30;92.50;;;;;;5069582;28;20308;-75
2021/10/12 04:45:38;;;;;;;24.40;12.97;;;10.20;93.00;;;;;;5057846;28;20215;-73
2021/10/12 04:48:05;;;;;;;23.30;12.10;;;10.20;93.30;;;;;;5073653;28;20199;-74
2021/10/12 04:50:31;;;;;;;23.27;11.83;;;10.10;93.40;;;;;;5073836;28;20936;-74
2021/10/12 04:52:57;;;;;;;28.83;12.83;;;10.10;93.70;;;;;;5072234;28;20480;-74
2021/10/12 04:55:22;;;;;;;21.30;12.00;;;9.90;94.10;;;;;;5073363;28;20187;-73
2021/10/12 04:57:48;;;;;;;32.03;14.13;;;9.90;94.60;;;;;;5072304;28;20213;-74
2021/10/12 05:00:14;;;;;;;33.27;15.70;;;9.80;94.80;;;;;;5074354;28;20207;-75
2021/10/12 05:02:40;;;;;;;24.03;13.03;;;9.70;95.30;;;;;;5075009;28;20199;-73
2021/10/12 05:05:06;;;;;;;25.13;13.03;;;9.60;95.90;;;;;;5074611;28;20962;-75
2021/10/12 05:07:31;;;;;;;25.57;13.67;;;9.60;96.10;;;;;;5069757;28;20665;-73
2021/10/12 05:09:57;;;;;;;29.37;13.30;;;9.60;96.20;;;;;;5069610;28;20442;-74
2021/10/12 05:12:23;;;;;;;28.57;13.93;;;9.60;96.50;;;;;;5074018;28;20884;-74
2021/10/12 05:14:48;;;;;;;30.40;13.53;;;9.50;96.50;;;;;;5073825;28;20176;-73
2021/10/12 05:20:12;;;;;;;31.17;15.83;;;9.50;96.90;;;;;;5070370;28;20219;-73
2021/10/12 05:22:38;;;;;;;37.67;15.43;;;9.60;97.10;;;;;;5068485;28;20417;-72
2021/10/12 05:25:04;;;;;;;29.27;15.37;;;9.50;97.10;;;;;;5069993;28;20188;-73
2021/10/12 05:27:31;;;;;;;37.43;14.13;;;9.50;97.20;;;;;;5069963;28;20196;-73
2021/10/12 05:29:57;;;;;;;28.37;13.90;;;9.50;97.20;;;;;;5070281;28;20442;-73
2021/10/12 05:32:23;;;;;;;28.27;14.97;;;9.50;97.20;;;;;;5053506;28;20425;-73
2021/10/12 05:34:49;;;;;;;25.20;13.90;;;9.50;97.40;;;;;;5069991;28;20188;-73
2021/10/12 05:37:15;;;;;;;34.93;15.47;;;9.40;97.40;;;;;;5069770;28;20548;-74
2021/10/12 05:39:40;;;;;;;28.00;15.00;;;9.40;97.50;;;;;;5052287;28;20677;-73
2021/10/12 05:42:07;;;;;;;30.07;13.37;;;9.40;97.70;;;;;;5068677;28;20284;-74
2021/10/12 05:44:33;;;;;;;28.90;13.80;;;9.50;97.80;;;;;;5069015;28;20187;-75
2021/10/12 05:46:59;;;;;;;33.47;14.87;;;9.50;97.70;;;;;;5068994;28;20426;-74
2021/10/12 05:49:25;;;;;;;33.07;14.10;;;9.50;97.80;;;;;;5068957;28;20249;-74
2021/10/12 05:51:51;;;;;;;35.37;14.83;;;9.50;97.80;;;;;;5068800;28;20442;-73
2021/10/12 05:54:19;;;;;;;31.00;12.57;;;9.60;97.70;;;;;;5068364;28;20434;-74
2021/10/12 05:57:05;;;;;;;43.27;15.53;;;9.60;97.70;;;;;;5070659;28;20925;-73
2021/10/12 05:59:33;;;;;;;28.27;12.63;;;9.60;97.60;;;;;;5070074;28;20525;-74
2021/10/12 06:02:00;;;;;;;31.40;16.20;;;9.60;97.70;;;;;;5070201;28;20426;-75
2021/10/12 06:04:26;;;;;;;36.23;16.97;;;9.70;97.80;;;;;;5071923;28;20448;-74
2021/10/12 06:06:55;;;;;;;33.90;15.97;;;9.60;97.60;;;;;;5069966;28;20576;-74
2021/10/12 06:09:21;;;;;;;37.93;17.50;;;9.50;97.70;;;;;;5072445;28;20505;-72
2021/10/12 06:11:47;;;;;;;33.53;15.57;;;9.60;97.90;;;;;;5071852;28;21322;-74
2021/10/12 06:14:14;;;;;;;30.67;15.70;;;9.60;98.00;;;;;;5070641;28;20194;-73
2021/10/12 06:16:40;;;;;;;35.97;16.23;;;9.60;98.10;;;;;;5071154;28;20196;-73
2021/10/12 06:19:06;;;;;;;31.67;13.97;;;9.60;98.00;;;;;;5073116;28;20472;-75
2021/10/12 06:21:31;;;;;;;30.97;15.40;;;9.60;98.00;;;;;;5073907;28;20200;-74
2021/10/12 06:23:57;;;;;;;32.87;15.30;;;9.60;98.00;;;;;;5075114;28;20700;-74
2021/10/12 06:26:23;;;;;;;30.20;13.43;;;9.60;97.90;;;;;;5072820;28;20184;-74
2021/10/12 06:28:49;;;;;;;50.90;16.90;;;9.60;97.90;;;;;;5071328;28;20231;-74
2021/10/12 06:31:15;;;;;;;31.43;15.10;;;9.70;97.60;;;;;;5072021;28;20506;-73
2021/10/12 06:33:41;;;;;;;38.80;17.90;;;9.60;97.60;;;;;;5070738;28;20184;-73
2021/10/12 06:36:07;;;;;;;30.57;14.97;;;9.70;97.90;;;;;;5075075;28;20509;-72
2021/10/12 06:40:00;;;;;;;31.43;14.90;;;9.70;98.10;;;;;;5070220;28;20570;-73
2021/10/12 06:42:26;;;;;;;33.77;16.30;;;9.70;98.00;;;;;;5047181;28;20948;-74
2021/10/12 06:44:52;;;;;;;28.10;13.60;;;9.70;98.00;;;;;;5047506;28;20655;-74
2021/10/12 06:47:18;;;;;;;33.10;13.60;;;9.70;98.00;;;;;;5047080;28;20180;-73
2021/10/12 06:49:44;;;;;;;28.70;15.23;;;9.70;97.70;;;;;;5047257;28;20195;-73
2021/10/12 06:52:10;;;;;;;29.83;14.90;;;9.70;97.70;;;;;;5047061;28;20553;-74
2021/10/12 06:54:36;;;;;;;32.00;15.60;;;9.60;97.70;;;;;;5046951;28;20238;-75
2021/10/12 06:57:08;;;;;;;29.23;13.93;;;9.60;97.80;;;;;;5045402;28;20419;-74
2021/10/12 06:59:34;;;;;;;25.83;13.00;;;9.70;97.60;;;;;;5039826;28;20467;-75
2021/10/12 07:02:00;;;;;;;27.40;12.60;;;9.70;97.30;;;;;;5046855;28;20419;-75
2021/10/12 07:04:26;;;;;;;33.27;14.40;;;9.80;97.10;;;;;;5046763;28;20223;-73
2021/10/12 07:06:52;;;;;;;34.07;15.67;;;9.80;96.90;;;;;;5045461;28;20181;-76
2021/10/12 07:09:18;;;;;;;36.83;14.20;;;9.80;97.10;;;;;;5046851;28;20422;-75
2021/10/12 07:11:44;;;;;;;24.47;14.13;;;9.80;97.20;;;;;;5046418;28;20220;-75
2021/10/12 07:14:11;;;;;;;27.67;14.40;;;9.90;97.30;;;;;;5046687;28;20427;-74
2021/10/12 07:16:38;;;;;;;35.80;14.50;;;9.90;97.10;;;;;;5044931;28;20441;-74
2021/10/12 07:19:05;;;;;;;30.23;13.73;;;9.80;96.90;;;;;;5046641;28;20485;-73
2021/10/12 07:21:31;;;;;;;39.73;16.00;;;9.90;97.20;;;;;;5046158;28;20431;-75
2021/10/12 07:23:57;;;;;;;30.40;13.50;;;9.80;96.90;;;;;;5046817;28;20734;-74
2021/10/12 07:26:23;;;;;;;26.17;14.13;;;9.80;97.10;;;;;;5046516;28;20442;-73
2021/10/12 07:28:49;;;;;;;30.93;13.60;;;9.90;96.90;;;;;;5046649;28;20195;-74
2021/10/12 07:31:14;;;;;;;39.73;16.70;;;9.90;96.90;;;;;;5045974;28;20545;-74
2021/10/12 07:33:40;;;;;;;28.00;14.60;;;9.90;96.90;;;;;;5046162;28;20596;-77
2021/10/12 07:36:06;;;;;;;28.37;13.57;;;9.80;97.10;;;;;;5045944;28;20196;-74
2021/10/12 07:38:32;;;;;;;27.70;13.13;;;9.90;97.30;;;;;;5044746;28;20212;-74
2021/10/12 07:40:58;;;;;;;28.00;14.40;;;9.90;97.20;;;;;;5046174;28;20197;-73
2021/10/12 07:43:24;;;;;;;27.77;13.40;;;9.90;97.20;;;;;;5046077;28;20759;-72
2021/10/12 07:45:50;;;;;;;30.63;13.33;;;9.90;97.20;;;;;;5045546;28;20423;-74
2021/10/12 07:48:17;;;;;;;25.37;12.47;;;9.90;97.40;;;;;;5046067;28;20431;-73
2021/10/12 07:50:43;;;;;;;28.60;11.53;;;9.90;97.10;;;;;;5036174;28;20444;-74
2021/10/12 07:53:10;;;;;;;30.10;12.80;;;9.90;96.60;;;;;;5032438;28;20449;-75
2021/10/12 07:55:46;;;;;;;37.07;14.80;;;9.80;96.70;;;;;;5032563;28;20423;-74
2021/10/12 07:58:12;;;;;;;31.40;12.33;;;9.80;96.70;;;;;;5031116;28;20473;-74
2021/10/12 08:00:38;;;;;;;22.87;10.90;;;9.80;96.70;;;;;;5032622;28;20439;-74
2021/10/12 08:03:05;;;;;;;24.50;10.80;;;9.80;96.70;;;;;;5032303;28;20426;-74
2021/10/12 08:05:32;;;;;;;23.07;10.20;;;9.90;96.50;;;;;;5032227;28;20181;-75
2021/10/12 08:07:58;;;;;;;18.00;10.07;;;9.80;96.10;;;;;;5032369;28;20930;-75
2021/10/12 08:10:24;;;;;;;22.30;10.13;;;9.90;96.00;;;;;;5032528;28;20487;-74
2021/10/12 08:12:55;;;;;;;18.97;10.13;;;9.90;96.10;;;;;;5032235;28;20450;-74
2021/10/12 08:15:21;;;;;;;18.17;9.50;;;9.90;96.20;;;;;;5031906;28;20434;-73
2021/10/12 08:17:47;;;;;;;23.10;10.07;;;9.90;95.90;;;;;;5030805;28;20432;-74
2021/10/12 08:20:14;;;;;;;14.43;9.57;;;10.00;95.90;;;;;;5030970;28;20444;-73
2021/10/12 08:22:40;;;;;;;15.57;8.90;;;10.10;96.00;;;;;;5032096;28;20412;-73
2021/10/12 08:25:08;;;;;;;17.00;9.47;;;10.10;95.80;;;;;;5031897;28;20420;-74
2021/10/12 08:27:38;;;;;;;17.60;8.40;;;10.20;95.20;;;;;;5032063;28;20189;-75
2021/10/12 08:30:06;;;;;;;17.67;8.40;;;10.30;94.80;;;;;;5032138;28;20530;-73
2021/10/12 08:32:32;;;;;;;16.50;9.33;;;10.30;94.70;;;;;;5032483;28;20454;-73
2021/10/12 08:34:57;;;;;;;17.67;8.70;;;10.30;94.30;;;;;;5029683;28;20432;-75
2021/10/12 08:37:23;;;;;;;19.30;9.17;;;10.40;94.40;;;;;;5032349;28;20427;-75
2021/10/12 08:39:49;;;;;;;17.13;9.23;;;10.50;94.20;;;;;;5035677;28;20216;-74
2021/10/12 08:42:25;;;;;;;14.50;8.67;;;10.60;93.70;;;;;;5034314;28;20216;-73
2021/10/12 08:44:54;;;;;;;17.40;8.87;;;10.60;93.60;;;;;;5026913;28;20654;-73
2021/10/12 08:47:22;;;;;;;17.83;9.57;;;10.60;93.10;;;;;;5030221;28;20420;-74
2021/10/12 08:49:48;;;;;;;17.40;9.03;;;10.80;93.50;;;;;;5032203;28;20930;-75
2021/10/12 08:52:13;;;;;;;16.23;7.30;;;10.90;93.10;;;;;;5031373;28;20567;-74
2021/10/12 08:54:39;;;;;;;17.07;7.50;;;11.00;92.80;;;;;;5032159;28;20322;-73
2021/10/12 08:57:05;;;;;;;16.47;8.40;;;11.00;92.60;;;;;;5031354;28;20242;-73
2021/10/12 08:59:31;;;;;;;18.03;8.07;;;11.00;92.40;;;;;;5031597;28;20216;-74
2021/10/12 09:01:59;;;;;;;13.40;7.90;;;10.80;92.40;;;;;;5030594;28;20205;-74
2021/10/12 09:04:38;;;;;;;14.37;7.83;;;10.60;93.00;;;;;;5031715;28;20185;-75
2021/10/12 09:07:04;;;;;;;19.03;7.90;;;10.50;93.70;;;;;;5030392;28;20462;-73
2021/10/12 09:09:34;;;;;;;14.43;6.30;;;10.60;94.40;;;;;;5030580;28;20423;-73
2021/10/12 09:12:00;;;;;;;17.93;8.17;;;10.60;93.30;;;;;;5031368;28;20439;-73
2021/10/12 09:14:26;;;;;;;15.03;7.50;;;10.70;93.30;;;;;;5031544;28;20494;-74
2021/10/12 09:17:03;;;;;;;12.00;7.10;;;10.70;93.40;;;;;;5032556;28;20431;-74
2021/10/12 09:19:33;;;;;;;12.90;7.13;;;10.80;93.00;;;;;;5027232;28;20985;-74
2021/10/12 09:22:05;;;;;;;13.80;6.90;;;10.90;92.70;;;;;;5033073;28;20428;-74
2021/10/12 09:24:39;;;;;;;15.13;7.67;;;11.00;92.40;;;;;;5033626;28;20412;-73
2021/10/12 09:27:14;;;;;;;11.03;6.40;;;11.00;92.90;;;;;;5032325;28;20424;-73
2021/10/12 09:29:47;;;;;;;16.07;7.20;;;11.10;92.20;;;;;;5029973;28;20799;-74
2021/10/12 09:32:13;;;;;;;13.03;6.20;;;11.30;92.20;;;;;;5031507;28;20470;-74
2021/10/12 09:34:41;;;;;;;12.77;6.73;;;11.30;91.80;;;;;;5029549;28;20957;-74
2021/10/12 09:37:08;;;;;;;14.20;7.13;;;11.20;91.90;;;;;;5032928;28;20458;-73
2021/10/12 09:39:42;;;;;;;13.47;5.73;;;11.30;91.40;;;;;;5036180;28;20933;-74
2021/10/12 09:42:10;;;;;;;11.00;5.70;;;11.20;91.00;;;;;;5039079;28;20434;-74
2021/10/12 09:44:38;;;;;;;10.63;5.80;;;11.20;91.90;;;;;;5033571;28;20474;-74
2021/10/12 09:47:09;;;;;;;15.77;7.83;;;11.20;91.70;;;;;;5032478;28;20424;-74
2021/10/12 09:49:35;;;;;;;29.60;8.40;;;11.20;91.60;;;;;;5035881;28;20435;-74
2021/10/12 09:52:04;;;;;;;11.37;6.63;;;11.10;91.60;;;;;;5036439;28;20521;-74
2021/10/12 09:54:34;;;;;;;13.53;6.53;;;11.20;91.60;;;;;;5033162;28;20428;-74
2021/10/12 09:57:03;;;;;;;16.43;7.50;;;11.10;91.70;;;;;;5032830;28;20451;-74
2021/10/12 09:59:30;;;;;;;16.43;6.80;;;11.10;92.00;;;;;;5026103;28;20472;-73
2021/10/12 10:01:58;;;;;;;11.57;6.37;;;11.10;92.30;;;;;;5031388;28;20436;-74
2021/10/12 10:04:27;;;;;;;16.70;7.10;;;11.00;93.00;;;;;;5031472;28;20428;-74
2021/10/12 10:07:04;;;;;;;16.87;8.23;;;11.00;93.70;;;;;;5031811;28;20424;-74
2021/10/12 10:09:31;;;;;;;13.67;7.10;;;11.00;93.90;;;;;;5024900;28;20427;-74
2021/10/12 10:11:58;;;;;;;10.17;4.77;;;10.90;94.00;;;;;;5037278;28;20455;-73
2021/10/12 10:14:25;;;;;;;10.57;6.07;;;10.70;93.20;;;;;;5035395;28;20446;-74
2021/10/12 10:16:58;;;;;;;11.67;5.73;;;10.60;93.50;;;;;;5033299;28;20432;-75
2021/10/12 10:19:30;;;;;;;14.17;6.50;;;10.70;94.00;;;;;;5032531;28;20529;-74
2021/10/12 10:21:56;;;;;;;12.90;6.60;;;10.80;94.30;;;;;;5040218;28;20463;-75
2021/10/12 10:24:43;;;;;;;11.00;6.97;;;10.90;94.40;;;;;;5034805;28;20431;-74
2021/10/12 10:27:31;;;;;;;15.10;7.50;;;10.90;93.80;;;;;;5029096;28;20419;-74
2021/10/12 10:30:21;;;;;;;11.47;5.97;;;11.00;93.90;;;;;;5030839;28;20467;-76
2021/10/12 10:32:48;;;;;;;12.93;6.50;;;11.20;93.50;;;;;;5030818;28;20423;-74
2021/10/12 10:35:15;;;;;;;13.87;7.00;;;11.30;93.50;;;;;;5030120;28;20435;-73
2021/10/12 10:37:41;;;;;;;12.73;6.97;;;11.40;93.60;;;;;;5029889;28;20426;-76
2021/10/12 10:40:34;;;;;;;13.90;5.87;;;11.40;93.00;;;;;;5030902;28;20800;-75
2021/10/12 10:43:00;;;;;;;12.40;7.20;;;11.50;92.80;;;;;;5032946;28;20185;-74
2021/10/12 10:45:41;;;;;;;18.93;7.27;;;11.80;92.80;;;;;;5029942;28;20499;-73
2021/10/12 10:48:10;;;;;;;13.00;7.30;;;12.20;92.20;;;;;;5027476;28;20423;-74
2021/10/12 10:50:36;;;;;;;14.47;6.83;;;12.40;90.20;;;;;;5030263;28;20969;-74
2021/10/12 10:53:04;;;;;;;12.40;6.13;;;12.60;88.70;;;;;;5029586;28;20838;-74
2021/10/12 10:55:32;;;;;;;16.50;6.77;;;12.80;88.40;;;;;;5024264;28;20431;-74
2021/10/12 10:58:02;;;;;;;12.10;6.90;;;13.00;88.40;;;;;;5030270;28;20469;-74
2021/10/12 11:00:31;;;;;;;12.90;7.00;;;12.90;88.00;;;;;;5028114;28;20815;-74
2021/10/12 11:02:57;;;;;;;10.57;6.10;;;12.50;88.40;;;;;;5028183;28;20452;-74
2021/10/12 11:05:40;;;;;;;14.60;7.43;;;12.60;88.60;;;;;;5029443;28;20790;-73
2021/10/12 11:08:29;;;;;;;14.27;8.07;;;12.70;89.00;;;;;;5030090;28;20789;-73
2021/10/12 11:10:59;;;;;;;15.47;7.50;;;12.80;89.30;;;;;;5025226;28;20440;-73
2021/10/12 11:13:30;;;;;;;11.10;6.50;;;12.80;89.70;;;;;;5028164;28;20466;-73
2021/10/12 11:15:56;;;;;;;14.67;7.30;;;12.70;88.30;;;;;;5030685;28;20842;-73
2021/10/12 11:18:22;;;;;;;15.30;7.53;;;12.40;86.90;;;;;;5032089;28;20451;-74
2021/10/12 11:20:51;;;;;;;9.23;5.70;;;12.30;88.40;;;;;;5029396;28;20520;-74
2021/10/12 11:23:41;;;;;;;13.13;6.23;;;12.40;88.40;;;;;;5030025;28;20557;-74
2021/10/12 11:26:16;;;;;;;9.47;5.80;;;12.20;87.70;;;;;;5031806;28;20442;-74
2021/10/12 11:28:47;;;;;;;11.53;5.80;;;12.30;86.80;;;;;;5027580;28;20466;-74
2021/10/12 11:31:15;;;;;;;10.63;5.47;;;12.40;87.10;;;;;;5031804;28;20443;-73
2021/10/12 11:33:44;;;;;;;12.87;6.13;;;12.30;85.00;;;;;;5030950;28;20426;-73
2021/10/12 11:36:11;;;;;;;13.83;6.13;;;12.40;85.20;;;;;;5033297;28;20798;-74
2021/10/12 11:38:43;;;;;;;16.80;7.90;;;12.60;86.00;;;;;;5032211;28;20467;-74
2021/10/12 11:41:17;;;;;;;10.87;5.33;;;12.70;85.50;;;;;;5032863;28;20493;-75
2021/10/12 11:43:44;;;;;;;11.67;5.90;;;12.80;85.00;;;;;;5031686;28;20427;-73
2021/10/12 11:46:10;;;;;;;12.07;6.20;;;13.00;84.10;;;;;;5033096;28;20907;-75
2021/10/12 11:48:38;;;;;;;11.97;6.00;;;13.00;84.40;;;;;;5033351;28;20757;-74
2021/10/12 11:51:20;;;;;;;9.30;5.63;;;13.10;84.00;;;;;;5033133;28;20443;-75
2021/10/12 11:53:48;;;;;;;10.83;4.53;;;13.10;83.60;;;;;;5032723;28;20506;-74
2021/10/12 11:56:16;;;;;;;10.90;5.80;;;13.20;81.90;;;;;;5032962;28;20427;-74
2021/10/12 11:58:42;;;;;;;14.17;5.10;;;13.20;82.50;;;;;;5033021;28;20489;-73
2021/10/12 12:01:10;;;;;;;8.87;4.90;;;13.10;83.10;;;;;;5032745;28;20450;-74
2021/10/12 12:03:36;;;;;;;10.90;4.90;;;12.90;83.70;;;;;;5032726;28;20495;-73
2021/10/12 12:06:02;;;;;;;6.43;4.60;;;12.90;83.60;;;;;;5032215;28;20477;-74
2021/10/12 12:08:31;;;;;;;7.93;4.63;;;12.80;81.90;;;;;;5032735;28;20428;-76
2021/10/12 12:10:58;;;;;;;15.20;6.23;;;12.90;83.40;;;;;;5032470;28;20443;-74
2021/10/12 12:13:28;;;;;;;10.63;4.40;;;13.20;84.10;;;;;;5033088;28;20518;-73
2021/10/12 12:15:55;;;;;;;11.93;5.10;;;13.50;79.90;;;;;;5032174;28;20922;-74
2021/10/12 12:18:24;;;;;;;8.50;4.70;;;13.50;79.90;;;;;;5031566;28;20962;-75
2021/10/12 12:20:53;;;;;;;10.80;4.50;;;13.50;78.90;;;;;;5030389;28;20464;-75
2021/10/12 12:23:54;;;;;;;10.57;4.57;;;13.30;79.50;;;;;;5032121;28;20503;-75
2021/10/12 12:26:23;;;;;;;11.03;4.50;;;13.30;79.50;;;;;;5009476;28;20432;-74
2021/10/12 12:28:48;;;;;;;11.07;4.63;;;13.50;79.70;;;;;;5009481;28;20468;-74
2021/10/12 12:31:27;;;;;;;7.10;5.00;;;13.40;78.60;;;;;;4993081;28;20480;-73
2021/10/12 12:33:57;;;;;;;11.30;5.37;;;13.60;79.90;;;;;;5007300;28;20680;-74
2021/10/12 12:36:34;;;;;;;8.30;5.17;;;13.80;77.40;;;;;;5009125;28;21002;-73
2021/10/12 12:39:07;;;;;;;8.87;4.50;;;13.60;75.50;;;;;;4993152;28;20480;-73